sensor_id;sensor_type;location;lat;lon;timestamp;P1;durP1;ratioP1;P2;durP2;ratioP2
68097;SDS011;54886;47.036;15.466;2023-11-18T00:00:06;1.50;;;1.40;;
68097;SDS011;54886;47.036;15.466;2023-11-18T00:02:37;2.10;;;1.50;;
68097;SDS011;54886;47.036;15.466;2023-11-18T00:05:03;1.38;;;1.27;;
68097;SDS011;54886;47.036;15.466;2023-11-18T00:07:29;2.92;;;1.50;;
68097;SDS011;54886;47.036;15.466;2023-11-18T00:09:57;1.70;;;1.60;;
68097;SDS011;54886;47.036;15.466;2023-11-18T00:12:22;1.98;;;1.70;;
68097;SDS011;54886;47.036;15.466;2023-11-18T00:14:49;4.18;;;2.00;;
68097;SDS011;54886;47.036;15.466;2023-11-18T00:17:14;4.90;;;2.53;;
68097;SDS011;54886;47.036;15.466;2023-11-18T00:19:41;5.70;;;2.25;;
68097;SDS011;54886;47.036;15.466;2023-11-18T00:22:07;5.20;;;2.60;;
68097;SDS011;54886;47.036;15.466;2023-11-18T00:24:33;6.18;;;2.95;;
68097;SDS011;54886;47.036;15.466;2023-11-18T00:26:59;6.00;;;3.05;;
68097;SDS011;54886;47.036;15.466;2023-11-18T00:29:30;4.32;;;2.47;;
68097;SDS011;54886;47.036;15.466;2023-11-18T00:32:00;5.28;;;2.65;;
68097;SDS011;54886;47.036;15.466;2023-11-18T00:34:28;2.88;;;2.10;;
68097;SDS011;54886;47.036;15.466;2023-11-18T00:36:54;4.63;;;2.17;;
68097;SDS011;54886;47.036;15.466;2023-11-18T00:41:47;3.28;;;1.70;;
68097;SDS011;54886;47.036;15.466;2023-11-18T00:44:13;1.65;;;1.50;;
68097;SDS011;54886;47.036;15.466;2023-11-18T00:46:39;2.88;;;1.63;;
68097;SDS011;54886;47.036;15.466;2023-11-18T00:49:05;1.88;;;1.50;;
68097;SDS011;54886;47.036;15.466;2023-11-18T00:51:30;1.50;;;1.40;;
68097;SDS011;54886;47.036;15.466;2023-11-18T00:53:56;1.50;;;1.40;;
68097;SDS011;54886;47.036;15.466;2023-11-18T00:56:22;2.10;;;1.50;;
68097;SDS011;54886;47.036;15.466;2023-11-18T00:58:47;1.50;;;1.40;;
68097;SDS011;54886;47.036;15.466;2023-11-18T01:01:13;1.67;;;1.20;;
68097;SDS011;54886;47.036;15.466;2023-11-18T01:03:46;1.50;;;1.40;;
68097;SDS011;54886;47.036;15.466;2023-11-18T01:06:11;1.45;;;1.35;;
68097;SDS011;54886;47.036;15.466;2023-11-18T01:08:37;1.63;;;1.30;;
68097;SDS011;54886;47.036;15.466;2023-11-18T01:11:03;2.30;;;1.35;;
68097;SDS011;54886;47.036;15.466;2023-11-18T01:13:32;1.77;;;1.42;;
68097;SDS011;54886;47.036;15.466;2023-11-18T01:15:57;2.45;;;1.40;;
68097;SDS011;54886;47.036;15.466;2023-11-18T01:18:23;1.40;;;1.30;;
68097;SDS011;54886;47.036;15.466;2023-11-18T01:20:48;1.85;;;1.40;;
68097;SDS011;54886;47.036;15.466;2023-11-18T01:23:14;1.50;;;1.40;;
68097;SDS011;54886;47.036;15.466;2023-11-18T01:25:39;1.80;;;1.50;;
68097;SDS011;54886;47.036;15.466;2023-11-18T01:28:05;1.45;;;1.35;;
68097;SDS011;54886;47.036;15.466;2023-11-18T01:30:31;1.52;;;1.35;;
68097;SDS011;54886;47.036;15.466;2023-11-18T01:32:57;1.50;;;1.30;;
68097;SDS011;54886;47.036;15.466;2023-11-18T01:37:51;1.60;;;1.45;;
68097;SDS011;54886;47.036;15.466;2023-11-18T01:40:17;1.40;;;1.30;;
68097;SDS011;54886;47.036;15.466;2023-11-18T01:42:45;1.38;;;1.27;;
68097;SDS011;54886;47.036;15.466;2023-11-18T01:45:14;2.25;;;1.42;;
68097;SDS011;54886;47.036;15.466;2023-11-18T01:47:41;2.22;;;1.40;;
68097;SDS011;54886;47.036;15.466;2023-11-18T01:50:08;1.48;;;1.23;;
68097;SDS011;54886;47.036;15.466;2023-11-18T01:52:36;1.75;;;1.38;;
68097;SDS011;54886;47.036;15.466;2023-11-18T01:55:02;1.75;;;1.30;;
68097;SDS011;54886;47.036;15.466;2023-11-18T01:57:34;1.38;;;1.27;;
68097;SDS011;54886;47.036;15.466;2023-11-18T01:59:59;2.00;;;1.50;;
68097;SDS011;54886;47.036;15.466;2023-11-18T02:02:30;1.45;;;1.35;;
68097;SDS011;54886;47.036;15.466;2023-11-18T02:04:56;2.17;;;1.50;;
68097;SDS011;54886;47.036;15.466;2023-11-18T02:07:21;2.58;;;1.50;;
68097;SDS011;54886;47.036;15.466;2023-11-18T02:09:47;2.78;;;1.63;;
68097;SDS011;54886;47.036;15.466;2023-11-18T02:14:45;1.40;;;1.30;;
68097;SDS011;54886;47.036;15.466;2023-11-18T02:17:12;2.30;;;1.40;;
68097;SDS011;54886;47.036;15.466;2023-11-18T02:19:39;1.70;;;1.60;;
68097;SDS011;54886;47.036;15.466;2023-11-18T02:22:06;4.28;;;1.92;;
68097;SDS011;54886;47.036;15.466;2023-11-18T02:24:32;6.50;;;2.30;;
68097;SDS011;54886;47.036;15.466;2023-11-18T02:27:02;4.10;;;2.40;;
68097;SDS011;54886;47.036;15.466;2023-11-18T02:29:30;4.50;;;2.45;;
68097;SDS011;54886;47.036;15.466;2023-11-18T02:35:09;5.55;;;2.50;;
68097;SDS011;54886;47.036;15.466;2023-11-18T02:37:42;3.88;;;2.10;;
68097;SDS011;54886;47.036;15.466;2023-11-18T02:40:11;4.00;;;2.20;;
68097;SDS011;54886;47.036;15.466;2023-11-18T02:42:41;4.07;;;2.20;;
68097;SDS011;54886;47.036;15.466;2023-11-18T02:45:10;4.20;;;2.20;;
68097;SDS011;54886;47.036;15.466;2023-11-18T02:47:40;6.18;;;2.42;;
68097;SDS011;54886;47.036;15.466;2023-11-18T02:50:05;4.60;;;2.35;;
68097;SDS011;54886;47.036;15.466;2023-11-18T02:52:39;3.30;;;2.10;;
68097;SDS011;54886;47.036;15.466;2023-11-18T02:55:05;5.72;;;2.30;;
68097;SDS011;54886;47.036;15.466;2023-11-18T02:57:32;3.65;;;2.20;;
68097;SDS011;54886;47.036;15.466;2023-11-18T02:59:58;4.88;;;2.50;;
68097;SDS011;54886;47.036;15.466;2023-11-18T03:02:25;4.72;;;2.28;;
68097;SDS011;54886;47.036;15.466;2023-11-18T03:04:52;4.57;;;2.22;;
68097;SDS011;54886;47.036;15.466;2023-11-18T03:07:18;3.53;;;2.20;;
68097;SDS011;54886;47.036;15.466;2023-11-18T03:09:44;4.38;;;2.25;;
68097;SDS011;54886;47.036;15.466;2023-11-18T03:12:11;4.63;;;2.22;;
68097;SDS011;54886;47.036;15.466;2023-11-18T03:14:37;3.28;;;2.15;;
68097;SDS011;54886;47.036;15.466;2023-11-18T03:17:03;5.15;;;2.70;;
68097;SDS011;54886;47.036;15.466;2023-11-18T03:19:34;3.15;;;2.20;;
68097;SDS011;54886;47.036;15.466;2023-11-18T03:22:00;5.07;;;2.20;;
68097;SDS011;54886;47.036;15.466;2023-11-18T03:24:26;4.68;;;2.40;;
68097;SDS011;54886;47.036;15.466;2023-11-18T03:26:53;5.15;;;2.42;;
68097;SDS011;54886;47.036;15.466;2023-11-18T03:29:19;6.53;;;2.50;;
68097;SDS011;54886;47.036;15.466;2023-11-18T03:31:45;5.57;;;2.92;;
68097;SDS011;54886;47.036;15.466;2023-11-18T03:34:13;4.68;;;2.30;;
68097;SDS011;54886;47.036;15.466;2023-11-18T03:36:39;4.70;;;2.42;;
68097;SDS011;54886;47.036;15.466;2023-11-18T03:39:04;6.63;;;2.53;;
68097;SDS011;54886;47.036;15.466;2023-11-18T03:41:31;4.93;;;2.83;;
68097;SDS011;54886;47.036;15.466;2023-11-18T03:43:56;4.53;;;2.30;;
68097;SDS011;54886;47.036;15.466;2023-11-18T03:46:22;4.55;;;2.30;;
68097;SDS011;54886;47.036;15.466;2023-11-18T03:48:47;4.00;;;2.47;;
68097;SDS011;54886;47.036;15.466;2023-11-18T03:51:13;3.50;;;2.30;;
68097;SDS011;54886;47.036;15.466;2023-11-18T03:53:41;7.30;;;2.58;;
68097;SDS011;54886;47.036;15.466;2023-11-18T03:56:07;5.25;;;2.42;;
68097;SDS011;54886;47.036;15.466;2023-11-18T03:58:33;3.60;;;2.10;;
68097;SDS011;54886;47.036;15.466;2023-11-18T04:00:59;5.07;;;2.50;;
68097;SDS011;54886;47.036;15.466;2023-11-18T04:03:26;4.68;;;2.40;;
68097;SDS011;54886;47.036;15.466;2023-11-18T04:05:51;6.00;;;2.40;;
68097;SDS011;54886;47.036;15.466;2023-11-18T04:08:17;4.57;;;2.50;;
68097;SDS011;54886;47.036;15.466;2023-11-18T04:10:42;4.55;;;2.47;;
68097;SDS011;54886;47.036;15.466;2023-11-18T04:13:07;4.35;;;2.10;;
68097;SDS011;54886;47.036;15.466;2023-11-18T04:15:33;5.15;;;2.45;;
68097;SDS011;54886;47.036;15.466;2023-11-18T04:18:00;5.50;;;2.50;;
68097;SDS011;54886;47.036;15.466;2023-11-18T04:20:25;3.67;;;2.10;;
68097;SDS011;54886;47.036;15.466;2023-11-18T04:22:51;5.68;;;2.45;;
68097;SDS011;54886;47.036;15.466;2023-11-18T04:25:16;3.83;;;2.25;;
68097;SDS011;54886;47.036;15.466;2023-11-18T04:27:41;3.40;;;2.28;;
68097;SDS011;54886;47.036;15.466;2023-11-18T04:30:07;4.22;;;2.30;;
68097;SDS011;54886;47.036;15.466;2023-11-18T04:32:37;8.85;;;2.60;;
68097;SDS011;54886;47.036;15.466;2023-11-18T04:35:03;5.10;;;2.47;;
68097;SDS011;54886;47.036;15.466;2023-11-18T04:37:33;5.68;;;2.67;;
68097;SDS011;54886;47.036;15.466;2023-11-18T04:39:59;5.43;;;2.60;;
68097;SDS011;54886;47.036;15.466;2023-11-18T04:42:25;4.00;;;2.28;;
68097;SDS011;54886;47.036;15.466;2023-11-18T04:44:50;3.30;;;2.08;;
68097;SDS011;54886;47.036;15.466;2023-11-18T04:47:16;5.88;;;2.40;;
68097;SDS011;54886;47.036;15.466;2023-11-18T04:49:43;6.50;;;2.80;;
68097;SDS011;54886;47.036;15.466;2023-11-18T04:52:09;5.10;;;2.40;;
68097;SDS011;54886;47.036;15.466;2023-11-18T04:54:34;4.72;;;2.47;;
68097;SDS011;54886;47.036;15.466;2023-11-18T04:57:00;4.80;;;2.60;;
68097;SDS011;54886;47.036;15.466;2023-11-18T04:59:26;5.70;;;2.42;;
68097;SDS011;54886;47.036;15.466;2023-11-18T05:01:51;5.15;;;2.50;;
68097;SDS011;54886;47.036;15.466;2023-11-18T05:04:18;4.32;;;2.50;;
68097;SDS011;54886;47.036;15.466;2023-11-18T05:06:43;4.65;;;2.42;;
68097;SDS011;54886;47.036;15.466;2023-11-18T05:09:09;6.28;;;2.75;;
68097;SDS011;54886;47.036;15.466;2023-11-18T05:11:34;5.60;;;2.55;;
68097;SDS011;54886;47.036;15.466;2023-11-18T05:14:00;5.55;;;2.58;;
68097;SDS011;54886;47.036;15.466;2023-11-18T05:16:27;5.57;;;2.67;;
68097;SDS011;54886;47.036;15.466;2023-11-18T05:18:53;4.00;;;2.45;;
68097;SDS011;54886;47.036;15.466;2023-11-18T05:21:18;5.53;;;2.45;;
68097;SDS011;54886;47.036;15.466;2023-11-18T05:23:44;5.47;;;2.65;;
68097;SDS011;54886;47.036;15.466;2023-11-18T05:26:09;6.35;;;2.80;;
68097;SDS011;54886;47.036;15.466;2023-11-18T05:28:35;7.10;;;2.90;;
68097;SDS011;54886;47.036;15.466;2023-11-18T05:31:00;6.18;;;2.80;;
68097;SDS011;54886;47.036;15.466;2023-11-18T05:33:29;4.80;;;2.50;;
68097;SDS011;54886;47.036;15.466;2023-11-18T05:35:56;4.47;;;2.40;;
68097;SDS011;54886;47.036;15.466;2023-11-18T05:38:22;4.45;;;2.30;;
68097;SDS011;54886;47.036;15.466;2023-11-18T05:40:48;5.28;;;2.20;;
68097;SDS011;54886;47.036;15.466;2023-11-18T05:43:26;5.20;;;2.30;;
68097;SDS011;54886;47.036;15.466;2023-11-18T05:46:02;4.07;;;2.20;;
68097;SDS011;54886;47.036;15.466;2023-11-18T05:48:44;4.03;;;2.50;;
68097;SDS011;54886;47.036;15.466;2023-11-18T05:51:10;3.97;;;2.30;;
68097;SDS011;54886;47.036;15.466;2023-11-18T05:53:42;4.63;;;2.40;;
68097;SDS011;54886;47.036;15.466;2023-11-18T05:56:12;3.92;;;2.30;;
68097;SDS011;54886;47.036;15.466;2023-11-18T05:58:43;4.15;;;2.60;;
68097;SDS011;54886;47.036;15.466;2023-11-18T06:01:08;4.18;;;2.47;;
68097;SDS011;54886;47.036;15.466;2023-11-18T06:03:35;6.37;;;3.27;;
68097;SDS011;54886;47.036;15.466;2023-11-18T06:06:04;4.07;;;2.30;;
68097;SDS011;54886;47.036;15.466;2023-11-18T06:08:33;4.50;;;2.72;;
68097;SDS011;54886;47.036;15.466;2023-11-18T06:13:30;4.32;;;2.50;;
68097;SDS011;54886;47.036;15.466;2023-11-18T06:15:56;5.20;;;2.50;;
68097;SDS011;54886;47.036;15.466;2023-11-18T06:18:21;6.43;;;3.00;;
68097;SDS011;54886;47.036;15.466;2023-11-18T06:20:47;3.45;;;2.30;;
68097;SDS011;54886;47.036;15.466;2023-11-18T06:23:13;5.50;;;2.85;;
68097;SDS011;54886;47.036;15.466;2023-11-18T06:25:43;5.72;;;2.50;;
68097;SDS011;54886;47.036;15.466;2023-11-18T06:28:08;3.03;;;2.17;;
68097;SDS011;54886;47.036;15.466;2023-11-18T06:30:34;5.40;;;2.42;;
68097;SDS011;54886;47.036;15.466;2023-11-18T06:33:01;5.03;;;2.40;;
68097;SDS011;54886;47.036;15.466;2023-11-18T06:35:27;4.28;;;2.45;;
68097;SDS011;54886;47.036;15.466;2023-11-18T06:37:54;4.18;;;2.30;;
68097;SDS011;54886;47.036;15.466;2023-11-18T06:40:20;4.65;;;2.55;;
68097;SDS011;54886;47.036;15.466;2023-11-18T06:42:46;4.65;;;2.60;;
68097;SDS011;54886;47.036;15.466;2023-11-18T06:45:12;6.25;;;2.88;;
68097;SDS011;54886;47.036;15.466;2023-11-18T06:47:41;5.13;;;2.67;;
68097;SDS011;54886;47.036;15.466;2023-11-18T06:50:09;10.07;;;5.80;;
68097;SDS011;54886;47.036;15.466;2023-11-18T06:52:39;8.05;;;4.28;;
68097;SDS011;54886;47.036;15.466;2023-11-18T06:55:06;10.75;;;6.07;;
68097;SDS011;54886;47.036;15.466;2023-11-18T06:57:32;10.50;;;5.65;;
68097;SDS011;54886;47.036;15.466;2023-11-18T06:59:58;8.85;;;4.63;;
68097;SDS011;54886;47.036;15.466;2023-11-18T07:02:23;8.55;;;4.38;;
68097;SDS011;54886;47.036;15.466;2023-11-18T07:04:48;6.47;;;3.78;;
68097;SDS011;54886;47.036;15.466;2023-11-18T07:07:14;6.90;;;3.63;;
68097;SDS011;54886;47.036;15.466;2023-11-18T07:09:39;7.22;;;3.88;;
68097;SDS011;54886;47.036;15.466;2023-11-18T07:12:05;5.13;;;2.88;;
68097;SDS011;54886;47.036;15.466;2023-11-18T07:14:30;5.22;;;3.08;;
68097;SDS011;54886;47.036;15.466;2023-11-18T07:16:56;6.35;;;3.35;;
68097;SDS011;54886;47.036;15.466;2023-11-18T07:19:21;4.97;;;2.90;;
68097;SDS011;54886;47.036;15.466;2023-11-18T07:21:47;6.10;;;3.00;;
68097;SDS011;54886;47.036;15.466;2023-11-18T07:24:14;4.47;;;2.63;;
68097;SDS011;54886;47.036;15.466;2023-11-18T07:26:39;5.18;;;2.80;;
68097;SDS011;54886;47.036;15.466;2023-11-18T07:29:05;5.22;;;2.72;;
68097;SDS011;54886;47.036;15.466;2023-11-18T07:31:32;8.10;;;2.88;;
68097;SDS011;54886;47.036;15.466;2023-11-18T07:33:58;5.75;;;3.10;;
68097;SDS011;54886;47.036;15.466;2023-11-18T07:36:23;6.18;;;2.80;;
68097;SDS011;54886;47.036;15.466;2023-11-18T07:38:49;5.72;;;2.63;;
68097;SDS011;54886;47.036;15.466;2023-11-18T07:41:15;5.20;;;2.72;;
68097;SDS011;54886;47.036;15.466;2023-11-18T07:43:51;4.68;;;2.83;;
68097;SDS011;54886;47.036;15.466;2023-11-18T07:46:21;4.43;;;2.70;;
68097;SDS011;54886;47.036;15.466;2023-11-18T07:48:48;6.13;;;2.53;;
68097;SDS011;54886;47.036;15.466;2023-11-18T07:51:14;5.95;;;2.50;;
68097;SDS011;54886;47.036;15.466;2023-11-18T07:53:40;4.72;;;2.80;;
68097;SDS011;54886;47.036;15.466;2023-11-18T07:56:07;4.77;;;2.50;;
68097;SDS011;54886;47.036;15.466;2023-11-18T07:58:37;5.13;;;2.60;;
68097;SDS011;54886;47.036;15.466;2023-11-18T08:01:03;3.88;;;2.30;;
68097;SDS011;54886;47.036;15.466;2023-11-18T08:03:32;5.78;;;2.95;;
68097;SDS011;54886;47.036;15.466;2023-11-18T08:05:58;7.55;;;3.22;;
68097;SDS011;54886;47.036;15.466;2023-11-18T08:08:23;6.00;;;2.53;;
68097;SDS011;54886;47.036;15.466;2023-11-18T08:10:48;8.93;;;2.70;;
68097;SDS011;54886;47.036;15.466;2023-11-18T08:13:15;4.65;;;2.40;;
68097;SDS011;54886;47.036;15.466;2023-11-18T08:15:41;4.05;;;2.28;;
68097;SDS011;54886;47.036;15.466;2023-11-18T08:18:10;4.22;;;2.05;;
68097;SDS011;54886;47.036;15.466;2023-11-18T08:20:36;24.77;;;9.18;;
68097;SDS011;54886;47.036;15.466;2023-11-18T08:23:02;12.13;;;4.88;;
68097;SDS011;54886;47.036;15.466;2023-11-18T08:25:29;7.10;;;3.25;;
68097;SDS011;54886;47.036;15.466;2023-11-18T08:27:58;5.55;;;2.80;;
68097;SDS011;54886;47.036;15.466;2023-11-18T08:30:23;4.60;;;2.70;;
68097;SDS011;54886;47.036;15.466;2023-11-18T08:32:49;4.63;;;2.33;;
68097;SDS011;54886;47.036;15.466;2023-11-18T08:35:14;4.35;;;2.20;;
68097;SDS011;54886;47.036;15.466;2023-11-18T08:37:41;3.13;;;2.05;;
68097;SDS011;54886;47.036;15.466;2023-11-18T08:40:13;4.85;;;2.38;;
68097;SDS011;54886;47.036;15.466;2023-11-18T08:42:48;6.13;;;2.40;;
68097;SDS011;54886;47.036;15.466;2023-11-18T08:45:22;5.35;;;2.28;;
68097;SDS011;54886;47.036;15.466;2023-11-18T08:47:53;5.57;;;2.42;;
68097;SDS011;54886;47.036;15.466;2023-11-18T08:50:20;4.53;;;2.10;;
68097;SDS011;54886;47.036;15.466;2023-11-18T08:52:49;4.40;;;2.13;;
68097;SDS011;54886;47.036;15.466;2023-11-18T08:55:18;5.55;;;2.20;;
68097;SDS011;54886;47.036;15.466;2023-11-18T08:57:48;3.67;;;2.17;;
68097;SDS011;54886;47.036;15.466;2023-11-18T09:00:23;5.03;;;2.08;;
68097;SDS011;54886;47.036;15.466;2023-11-18T09:03:08;2.60;;;1.70;;
68097;SDS011;54886;47.036;15.466;2023-11-18T09:05:33;2.30;;;1.80;;
68097;SDS011;54886;47.036;15.466;2023-11-18T09:08:01;1.80;;;1.50;;
68097;SDS011;54886;47.036;15.466;2023-11-18T09:10:31;1.60;;;1.50;;
68097;SDS011;54886;47.036;15.466;2023-11-18T09:12:57;2.53;;;1.58;;
68097;SDS011;54886;47.036;15.466;2023-11-18T09:15:23;3.65;;;1.40;;
68097;SDS011;54886;47.036;15.466;2023-11-18T09:17:48;2.35;;;1.50;;
68097;SDS011;54886;47.036;15.466;2023-11-18T09:20:14;8.35;;;2.50;;
68097;SDS011;54886;47.036;15.466;2023-11-18T09:22:47;1.98;;;1.45;;
68097;SDS011;54886;47.036;15.466;2023-11-18T09:25:20;1.85;;;1.40;;
68097;SDS011;54886;47.036;15.466;2023-11-18T09:27:47;1.70;;;1.10;;
68097;SDS011;54886;47.036;15.466;2023-11-18T09:30:13;1.23;;;1.13;;
68097;SDS011;54886;47.036;15.466;2023-11-18T09:32:42;3.00;;;1.30;;
68097;SDS011;54886;47.036;15.466;2023-11-18T09:35:10;1.20;;;1.10;;
68097;SDS011;54886;47.036;15.466;2023-11-18T09:37:37;1.58;;;1.20;;
68097;SDS011;54886;47.036;15.466;2023-11-18T09:40:07;1.20;;;1.10;;
68097;SDS011;54886;47.036;15.466;2023-11-18T09:42:38;1.30;;;1.20;;
68097;SDS011;54886;47.036;15.466;2023-11-18T09:45:04;1.55;;;1.17;;
68097;SDS011;54886;47.036;15.466;2023-11-18T09:47:35;1.30;;;1.10;;
68097;SDS011;54886;47.036;15.466;2023-11-18T09:50:06;2.35;;;1.17;;
68097;SDS011;54886;47.036;15.466;2023-11-18T09:52:36;1.05;;;0.90;;
68097;SDS011;54886;47.036;15.466;2023-11-18T09:55:11;1.08;;;1.08;;
68097;SDS011;54886;47.036;15.466;2023-11-18T09:57:50;1.10;;;1.10;;
68097;SDS011;54886;47.036;15.466;2023-11-18T10:00:22;1.35;;;1.15;;
68097;SDS011;54886;47.036;15.466;2023-11-18T10:02:57;1.10;;;1.10;;
68097;SDS011;54886;47.036;15.466;2023-11-18T10:05:25;1.30;;;1.20;;
68097;SDS011;54886;47.036;15.466;2023-11-18T10:07:52;1.33;;;1.20;;
68097;SDS011;54886;47.036;15.466;2023-11-18T10:10:21;2.13;;;1.08;;
68097;SDS011;54886;47.036;15.466;2023-11-18T10:12:47;4.10;;;1.77;;
68097;SDS011;54886;47.036;15.466;2023-11-18T10:15:23;3.85;;;1.98;;
68097;SDS011;54886;47.036;15.466;2023-11-18T10:17:49;1.67;;;1.42;;
68097;SDS011;54886;47.036;15.466;2023-11-18T10:23:07;22.90;;;10.50;;
68097;SDS011;54886;47.036;15.466;2023-11-18T10:25:35;3.78;;;1.83;;
68097;SDS011;54886;47.036;15.466;2023-11-18T10:28:05;1.40;;;1.30;;
68097;SDS011;54886;47.036;15.466;2023-11-18T10:30:31;1.10;;;1.10;;
68097;SDS011;54886;47.036;15.466;2023-11-18T10:32:58;1.30;;;0.95;;
68097;SDS011;54886;47.036;15.466;2023-11-18T10:35:37;0.82;;;0.82;;
68097;SDS011;54886;47.036;15.466;2023-11-18T10:38:02;0.90;;;0.90;;
68097;SDS011;54886;47.036;15.466;2023-11-18T10:40:33;0.90;;;0.90;;
68097;SDS011;54886;47.036;15.466;2023-11-18T10:43:05;0.80;;;0.80;;
68097;SDS011;54886;47.036;15.466;2023-11-18T10:45:34;0.70;;;0.70;;
68097;SDS011;54886;47.036;15.466;2023-11-18T10:48:06;1.25;;;0.88;;
68097;SDS011;54886;47.036;15.466;2023-11-18T10:50:32;1.00;;;0.88;;
68097;SDS011;54886;47.036;15.466;2023-11-18T10:53:00;0.95;;;0.95;;
68097;SDS011;54886;47.036;15.466;2023-11-18T10:55:39;0.70;;;0.70;;
68097;SDS011;54886;47.036;15.466;2023-11-18T10:58:05;0.98;;;0.98;;
68097;SDS011;54886;47.036;15.466;2023-11-18T11:00:51;0.90;;;0.90;;
68097;SDS011;54886;47.036;15.466;2023-11-18T11:03:25;0.80;;;0.80;;
68097;SDS011;54886;47.036;15.466;2023-11-18T11:05:51;0.70;;;0.70;;
68097;SDS011;54886;47.036;15.466;2023-11-18T11:08:19;0.80;;;0.80;;
68097;SDS011;54886;47.036;15.466;2023-11-18T11:10:45;0.80;;;0.80;;
68097;SDS011;54886;47.036;15.466;2023-11-18T11:13:13;1.42;;;1.20;;
68097;SDS011;54886;47.036;15.466;2023-11-18T11:15:43;0.82;;;0.77;;
68097;SDS011;54886;47.036;15.466;2023-11-18T11:18:14;1.00;;;0.90;;
68097;SDS011;54886;47.036;15.466;2023-11-18T11:20:57;1.08;;;0.82;;
68097;SDS011;54886;47.036;15.466;2023-11-18T11:23:46;0.60;;;0.60;;
68097;SDS011;54886;47.036;15.466;2023-11-18T11:29:53;0.80;;;0.80;;
68097;SDS011;54886;47.036;15.466;2023-11-18T11:32:43;0.70;;;0.70;;
68097;SDS011;54886;47.036;15.466;2023-11-18T11:35:22;0.80;;;0.80;;
68097;SDS011;54886;47.036;15.466;2023-11-18T11:37:48;0.88;;;0.88;;
68097;SDS011;54886;47.036;15.466;2023-11-18T11:40:15;2.47;;;1.55;;
68097;SDS011;54886;47.036;15.466;2023-11-18T11:42:47;0.80;;;0.80;;
68097;SDS011;54886;47.036;15.466;2023-11-18T11:45:19;0.80;;;0.80;;
68097;SDS011;54886;47.036;15.466;2023-11-18T11:47:48;0.80;;;0.80;;
68097;SDS011;54886;47.036;15.466;2023-11-18T11:50:17;1.58;;;0.80;;
68097;SDS011;54886;47.036;15.466;2023-11-18T11:52:58;0.98;;;0.80;;
68097;SDS011;54886;47.036;15.466;2023-11-18T11:55:38;0.80;;;0.80;;
68097;SDS011;54886;47.036;15.466;2023-11-18T11:58:30;1.00;;;0.90;;
68097;SDS011;54886;47.036;15.466;2023-11-18T12:00:58;0.77;;;0.77;;
68097;SDS011;54886;47.036;15.466;2023-11-18T12:03:26;0.80;;;0.80;;
68097;SDS011;54886;47.036;15.466;2023-11-18T12:05:54;0.80;;;0.80;;
68097;SDS011;54886;47.036;15.466;2023-11-18T12:08:21;1.67;;;0.88;;
68097;SDS011;54886;47.036;15.466;2023-11-18T12:10:51;1.02;;;0.93;;
68097;SDS011;54886;47.036;15.466;2023-11-18T12:13:21;0.90;;;0.90;;
68097;SDS011;54886;47.036;15.466;2023-11-18T12:18:29;1.08;;;1.00;;
68097;SDS011;54886;47.036;15.466;2023-11-18T12:23:27;1.00;;;1.00;;
68097;SDS011;54886;47.036;15.466;2023-11-18T12:25:52;0.93;;;0.93;;
68097;SDS011;54886;47.036;15.466;2023-11-18T12:28:20;0.95;;;0.95;;
68097;SDS011;54886;47.036;15.466;2023-11-18T12:30:52;1.13;;;1.00;;
68097;SDS011;54886;47.036;15.466;2023-11-18T12:33:21;1.10;;;0.93;;
68097;SDS011;54886;47.036;15.466;2023-11-18T12:41:04;1.10;;;1.00;;
68097;SDS011;54886;47.036;15.466;2023-11-18T12:43:48;0.90;;;0.90;;
68097;SDS011;54886;47.036;15.466;2023-11-18T12:49:02;1.92;;;1.00;;
68097;SDS011;54886;47.036;15.466;2023-11-18T12:51:28;1.00;;;0.98;;
68097;SDS011;54886;47.036;15.466;2023-11-18T12:53:56;0.80;;;0.80;;
68097;SDS011;54886;47.036;15.466;2023-11-18T12:56:23;0.90;;;0.90;;
68097;SDS011;54886;47.036;15.466;2023-11-18T12:58:50;0.73;;;0.73;;
68097;SDS011;54886;47.036;15.466;2023-11-18T13:01:16;0.70;;;0.70;;
68097;SDS011;54886;47.036;15.466;2023-11-18T13:03:41;0.70;;;0.70;;
68097;SDS011;54886;47.036;15.466;2023-11-18T13:06:08;0.80;;;0.80;;
68097;SDS011;54886;47.036;15.466;2023-11-18T13:08:34;0.90;;;0.90;;
68097;SDS011;54886;47.036;15.466;2023-11-18T13:11:00;1.45;;;0.95;;
68097;SDS011;54886;47.036;15.466;2023-11-18T13:15:54;0.93;;;0.93;;
68097;SDS011;54886;47.036;15.466;2023-11-18T13:18:20;0.80;;;0.80;;
68097;SDS011;54886;47.036;15.466;2023-11-18T13:20:57;0.98;;;0.90;;
68097;SDS011;54886;47.036;15.466;2023-11-18T13:23:26;0.90;;;0.90;;
68097;SDS011;54886;47.036;15.466;2023-11-18T13:25:58;0.80;;;0.80;;
68097;SDS011;54886;47.036;15.466;2023-11-18T13:28:28;1.15;;;0.93;;
68097;SDS011;54886;47.036;15.466;2023-11-18T13:30:54;1.27;;;0.90;;
68097;SDS011;54886;47.036;15.466;2023-11-18T13:33:20;1.00;;;1.00;;
68097;SDS011;54886;47.036;15.466;2023-11-18T13:35:46;0.90;;;0.90;;
68097;SDS011;54886;47.036;15.466;2023-11-18T13:38:12;1.27;;;1.00;;
68097;SDS011;54886;47.036;15.466;2023-11-18T13:40:42;0.90;;;0.90;;
68097;SDS011;54886;47.036;15.466;2023-11-18T13:43:11;0.82;;;0.82;;
68097;SDS011;54886;47.036;15.466;2023-11-18T13:45:37;1.05;;;0.95;;
68097;SDS011;54886;47.036;15.466;2023-11-18T13:48:03;2.70;;;1.65;;
68097;SDS011;54886;47.036;15.466;2023-11-18T13:50:29;1.77;;;1.38;;
68097;SDS011;54886;47.036;15.466;2023-11-18T13:52:55;2.20;;;1.60;;
68097;SDS011;54886;47.036;15.466;2023-11-18T13:55:21;2.15;;;1.25;;
68097;SDS011;54886;47.036;15.466;2023-11-18T13:57:53;1.00;;;1.00;;
68097;SDS011;54886;47.036;15.466;2023-11-18T14:00:21;1.13;;;1.02;;
68097;SDS011;54886;47.036;15.466;2023-11-18T14:02:48;1.17;;;1.10;;
68097;SDS011;54886;47.036;15.466;2023-11-18T14:05:17;2.10;;;1.52;;
68097;SDS011;54886;47.036;15.466;2023-11-18T14:07:45;2.38;;;1.50;;
68097;SDS011;54886;47.036;15.466;2023-11-18T14:10:12;1.30;;;1.30;;
68097;SDS011;54886;47.036;15.466;2023-11-18T14:12:38;1.05;;;1.05;;
68097;SDS011;54886;47.036;15.466;2023-11-18T14:15:04;5.13;;;2.22;;
68097;SDS011;54886;47.036;15.466;2023-11-18T14:17:30;7.82;;;3.80;;
68097;SDS011;54886;47.036;15.466;2023-11-18T14:19:56;10.13;;;5.32;;
68097;SDS011;54886;47.036;15.466;2023-11-18T14:22:21;7.50;;;3.88;;
68097;SDS011;54886;47.036;15.466;2023-11-18T14:24:46;6.28;;;3.30;;
68097;SDS011;54886;47.036;15.466;2023-11-18T14:27:13;3.55;;;1.98;;
68097;SDS011;54886;47.036;15.466;2023-11-18T14:29:38;2.63;;;1.80;;
68097;SDS011;54886;47.036;15.466;2023-11-18T14:32:04;1.48;;;1.20;;
68097;SDS011;54886;47.036;15.466;2023-11-18T14:34:31;1.60;;;1.20;;
68097;SDS011;54886;47.036;15.466;2023-11-18T14:36:56;1.30;;;1.20;;
68097;SDS011;54886;47.036;15.466;2023-11-18T14:39:22;1.20;;;1.10;;
68097;SDS011;54886;47.036;15.466;2023-11-18T14:41:47;1.83;;;1.40;;
68097;SDS011;54886;47.036;15.466;2023-11-18T14:44:13;1.77;;;1.23;;
68097;SDS011;54886;47.036;15.466;2023-11-18T14:46:39;0.95;;;0.95;;
68097;SDS011;54886;47.036;15.466;2023-11-18T14:49:06;1.17;;;1.13;;
68097;SDS011;54886;47.036;15.466;2023-11-18T14:51:31;1.00;;;1.00;;
68097;SDS011;54886;47.036;15.466;2023-11-18T14:53:56;1.67;;;1.20;;
68097;SDS011;54886;47.036;15.466;2023-11-18T14:56:22;1.00;;;1.00;;
68097;SDS011;54886;47.036;15.466;2023-11-18T14:58:47;1.10;;;1.00;;
68097;SDS011;54886;47.036;15.466;2023-11-18T15:01:14;2.17;;;1.27;;
68097;SDS011;54886;47.036;15.466;2023-11-18T15:03:40;1.00;;;1.00;;
68097;SDS011;54886;47.036;15.466;2023-11-18T15:06:06;1.20;;;1.10;;
68097;SDS011;54886;47.036;15.466;2023-11-18T15:08:31;0.90;;;0.90;;
68097;SDS011;54886;47.036;15.466;2023-11-18T15:10:57;2.17;;;1.50;;